Time;durP1;ratioP1;P1;durP2;ratioP2;P2;SDS_P1;SDS_P2;PMS_P1;PMS_P2;Temp;Humidity;BMP_temperature;BMP_pressure;BME280_temperature;BME280_humidity;BME280_pressure;Samples;Min_cycle;Max_cycle;Signal;HPM_P1;HPM_P2
2022/11/04 00:02:28;;;;;;;7.00;3.35;;;;;;;8.45;100.00;99979.34;10318876;28;20062;-79
2022/11/04 00:12:47;;;;;;;8.02;4.18;;;;;;;8.44;100.00;99984.53;10359794;28;20490;-79
2022/11/04 00:17:48;;;;;;;14.77;6.07;;;;;;;8.39;100.00;99999.97;10358766;28;20105;-79
2022/11/04 00:33:34;;;;;;;9.20;5.13;;;;;;;7.74;100.00;100033.59;10357800;28;20034;-79
2022/11/04 00:38:34;;;;;;;14.55;6.85;;;;;;;7.65;100.00;100039.31;10357478;28;20133;-78
2022/11/04 00:43:35;;;;;;;12.95;5.50;;;;;;;7.52;100.00;100048.25;10356572;28;20034;-78
2022/11/04 00:48:35;;;;;;;8.88;6.68;;;;;;;7.49;100.00;100042.88;10372833;28;20044;-78
2022/11/04 00:53:36;;;;;;;9.95;5.90;;;;;;;7.37;100.00;100043.22;10356285;28;20077;-78
2022/11/04 00:58:36;;;;;;;8.15;5.20;;;;;;;7.51;100.00;100045.59;10357420;28;20037;-78
2022/11/04 01:03:37;;;;;;;8.20;5.10;;;;;;;7.48;100.00;100062.84;10358231;28;20391;-78
2022/11/04 01:08:38;;;;;;;12.07;5.55;;;;;;;7.36;100.00;100067.47;10340468;28;20038;-78
2022/11/04 01:13:38;;;;;;;9.15;4.90;;;;;;;7.20;100.00;100068.44;10356819;28;20034;-77
2022/11/04 01:18:39;;;;;;;8.68;5.25;;;;;;;7.33;100.00;100070.81;10339631;28;20084;-78
2022/11/04 01:23:40;;;;;;;14.23;4.35;;;;;;;7.22;100.00;100079.81;10339440;28;20041;-78
2022/11/04 01:28:41;;;;;;;8.87;4.30;;;;;;;7.24;100.00;100078.16;10339737;28;20597;-79
2022/11/04 01:33:41;;;;;;;7.65;3.97;;;;;;;7.08;100.00;100081.75;10358879;28;20038;-78
2022/11/04 01:38:42;;;;;;;7.72;4.20;;;;;;;6.98;100.00;100090.78;10353669;28;20053;-78
2022/11/04 01:43:48;;;;;;;14.15;5.55;;;;;;;6.83;100.00;100090.03;10315670;28;20041;-78
2022/11/04 01:48:49;;;;;;;6.30;3.90;;;;;;;6.74;100.00;100095.69;10333707;28;20507;-80
2022/11/04 01:53:50;;;;;;;28.08;5.30;;;;;;;6.65;100.00;100097.81;10339907;28;20042;-77
2022/11/04 01:58:52;;;;;;;9.85;4.72;;;;;;;6.50;100.00;100095.28;10355638;28;20037;-79
2022/11/04 02:03:55;;;;;;;8.55;3.70;;;;;;;6.41;100.00;100100.94;10339151;28;20053;-80
2022/11/04 02:08:55;;;;;;;9.55;3.65;;;;;;;6.43;100.00;100118.38;10357349;28;20064;-80
2022/11/04 02:13:56;;;;;;;7.82;4.38;;;;;;;6.39;100.00;100119.03;10363193;28;20118;-80
2022/11/04 02:19:22;;;;;;;8.45;4.00;;;;;;;6.39;100.00;100123.34;10345674;28;20040;-80
2022/11/04 02:24:28;;;;;;;7.93;4.40;;;;;;;6.37;100.00;100123.25;10362215;28;20129;-79
2022/11/04 02:29:47;;;;;;;15.50;5.25;;;;;;;6.47;100.00;100115.13;10362908;28;20413;-79
2022/11/04 02:35:10;;;;;;;9.10;3.72;;;;;;;6.41;100.00;100126.91;10364218;28;20046;-79
2022/11/04 02:40:28;;;;;;;9.35;4.25;;;;;;;6.23;100.00;100117.34;10361374;28;20038;-79
2022/11/04 02:45:39;;;;;;;10.20;5.68;;;;;;;6.14;100.00;100116.84;10363682;28;20117;-80
2022/11/04 02:50:40;;;;;;;9.00;4.88;;;;;;;6.14;100.00;100109.06;10378063;28;20425;-80
2022/11/04 02:55:43;;;;;;;14.82;5.13;;;;;;;6.30;100.00;100102.94;10363053;28;20042;-81
2022/11/04 03:00:44;;;;;;;11.98;4.47;;;;;;;6.46;100.00;100108.13;10343972;28;20407;-80
2022/11/04 03:05:47;;;;;;;12.05;6.80;;;;;;;6.57;100.00;100110.41;10346428;28;20054;-80
2022/11/04 03:10:51;;;;;;;10.98;3.42;;;;;;;6.64;100.00;100101.22;10343493;28;20041;-79
2022/11/04 03:15:56;;;;;;;9.05;4.45;;;;;;;6.67;100.00;100101.38;10339901;28;20034;-79
2022/11/04 03:21:00;;;;;;;11.80;5.18;;;;;;;6.55;100.00;100094.75;10344872;28;20034;-79
2022/11/04 03:26:30;;;;;;;9.40;3.53;;;;;;;6.52;100.00;100097.19;10344106;28;20380;-80
2022/11/04 03:31:59;;;;;;;11.10;4.40;;;;;;;6.67;100.00;100101.38;10338303;28;20120;-80
2022/11/04 03:37:01;;;;;;;12.23;7.18;;;;;;;6.72;100.00;100105.97;10359015;28;20042;-79
2022/11/04 03:42:19;;;;;;;10.75;3.45;;;;;;;6.79;100.00;100108.91;10361416;28;20406;-80
2022/11/04 03:47:29;;;;;;;14.35;4.82;;;;;;;6.75;100.00;100116.53;10345379;28;20046;-80
2022/11/04 03:52:38;;;;;;;11.27;4.35;;;;;;;6.44;100.00;100125.34;10359001;28;20041;-80
2022/11/04 03:57:56;;;;;;;12.75;3.88;;;;;;;6.27;100.00;100121.88;10361312;28;20471;-80
2022/11/04 04:03:14;;;;;;;14.85;6.00;;;;;;;6.09;100.00;100136.50;10399262;28;20120;-81
2022/11/04 04:08:59;;;;;;;15.45;4.53;;;;;;;5.91;100.00;100129.47;10362408;28;20401;-81
2022/11/04 04:14:38;;;;;;;7.30;3.10;;;;;;;5.64;100.00;100123.63;10359310;28;20049;-81
2022/11/04 04:19:40;;;;;;;6.90;3.33;;;;;;;5.47;100.00;100126.16;10375379;28;20046;-80
2022/11/04 04:30:14;;;;;;;12.70;4.03;;;;;;;5.19;100.00;100126.31;10358680;28;20478;-81
2022/11/04 04:46:02;;;;;;;11.77;3.67;;;;;;;4.88;100.00;100138.38;10390221;28;20033;-80
2022/11/04 04:51:10;;;;;;;17.08;4.45;;;;;;;4.84;100.00;100141.59;10396948;28;20056;-79
2022/11/04 04:56:11;;;;;;;11.75;4.45;;;;;;;4.76;100.00;100151.53;10398195;28;20045;-79
2022/11/04 05:01:12;;;;;;;12.65;5.18;;;;;;;4.61;100.00;100156.69;10396089;28;20489;-80
2022/11/04 05:06:13;;;;;;;10.55;3.25;;;;;;;4.49;100.00;100153.34;10386066;28;20080;-79
2022/11/04 05:11:18;;;;;;;14.50;4.60;;;;;;;4.38;100.00;100163.06;10365135;28;20416;-79
2022/11/04 05:16:19;;;;;;;12.60;4.43;;;;;;;4.28;100.00;100165.91;10356097;28;20125;-79
2022/11/04 05:21:20;;;;;;;8.18;3.45;;;;;;;4.23;100.00;100170.78;10358469;28;20132;-81
2022/11/04 05:26:23;;;;;;;8.50;4.18;;;;;;;4.44;100.00;100171.22;10380728;28;20045;-81
2022/11/04 05:31:29;;;;;;;9.43;5.32;;;;;;;4.71;100.00;100171.09;10357444;28;20046;-81
2022/11/04 05:36:36;;;;;;;11.45;6.10;;;;;;;4.87;100.00;100165.13;10356630;28;20045;-80
2022/11/04 05:41:38;;;;;;;13.05;6.20;;;;;;;4.91;100.00;100169.69;10382911;28;20042;-80
2022/11/04 05:46:42;;;;;;;15.55;6.28;;;;;;;5.00;100.00;100172.81;10380301;28;20133;-79
2022/11/04 05:51:43;;;;;;;16.60;6.05;;;;;;;5.18;100.00;100187.66;10363962;28;20045;-83
2022/11/04 05:56:44;;;;;;;12.07;5.30;;;;;;;5.27;100.00;100190.81;10380684;28;20038;-82
2022/11/04 06:01:45;;;;;;;11.18;5.00;;;;;;;5.40;100.00;100200.22;10412847;28;20041;-81
2022/11/04 06:06:48;;;;;;;19.35;7.18;;;;;;;5.44;100.00;100196.97;10371566;28;20120;-80
2022/11/04 06:11:55;;;;;;;14.07;6.75;;;;;;;5.53;100.00;100199.19;10342848;28;20520;-81
2022/11/04 06:16:55;;;;;;;11.43;6.00;;;;;;;5.55;100.00;100197.59;10345808;28;20049;-80
2022/11/04 06:21:58;;;;;;;10.65;4.93;;;;;;;5.61;100.00;100202.25;10345369;28;20069;-81
2022/11/04 06:27:01;;;;;;;13.73;5.22;;;;;;;5.70;100.00;100207.03;10318718;28;20126;-82
2022/11/04 06:32:08;;;;;;;11.75;6.80;;;;;;;5.73;100.00;100204.63;10360670;28;20042;-80
2022/11/04 06:37:15;;;;;;;9.05;5.57;;;;;;;5.78;100.00;100205.78;10346451;28;20118;-82
2022/11/04 06:42:20;;;;;;;10.88;4.70;;;;;;;5.93;100.00;100213.56;10363243;28;20685;-81
2022/11/04 06:47:21;;;;;;;11.75;5.57;;;;;;;5.81;100.00;100229.31;10370222;28;20102;-81
2022/11/04 06:52:24;;;;;;;13.13;7.03;;;;;;;5.73;100.00;100231.50;10396668;28;20038;-79
2022/11/04 06:57:24;;;;;;;11.57;5.45;;;;;;;5.84;100.00;100237.28;10385717;28;20041;-79
2022/11/04 07:02:25;;;;;;;10.35;5.07;;;;;;;6.08;100.00;100241.22;10352614;28;20038;-80
2022/11/04 07:07:28;;;;;;;20.05;5.40;;;;;;;6.14;100.00;100241.56;10343873;28;20026;-81
2022/11/04 07:12:31;;;;;;;23.05;8.40;;;;;;;6.22;100.00;100248.09;10360143;28;20045;-81
2022/11/04 07:17:39;;;;;;;14.32;5.38;;;;;;;6.24;100.00;100254.25;10362897;28;20100;-81
2022/11/04 07:22:53;;;;;;;17.13;7.72;;;;;;;6.23;100.00;100260.28;10366832;28;20038;-80
2022/11/04 07:27:59;;;;;;;16.95;6.97;;;;;;;6.15;100.00;100269.34;10355304;28;20029;-83
2022/11/04 07:33:09;;;;;;;13.70;5.70;;;;;;;6.11;100.00;100278.66;10358387;28;20173;-81
2022/11/04 07:38:18;;;;;;;16.27;8.05;;;;;;;6.10;100.00;100282.06;10375934;28;20041;-82
2022/11/04 07:43:19;;;;;;;15.45;8.27;;;;;;;6.14;100.00;100290.94;10370025;28;20066;-81
2022/11/04 07:48:20;;;;;;;15.38;6.03;;;;;;;6.14;100.00;100289.22;10356996;28;20572;-81
2022/11/04 07:53:21;;;;;;;13.65;7.63;;;;;;;6.13;100.00;100286.56;10328353;28;20050;-82
2022/11/04 07:58:22;;;;;;;14.57;8.20;;;;;;;6.28;100.00;100292.59;10359099;28;20046;-82
2022/11/04 08:03:26;;;;;;;22.48;7.82;;;;;;;6.51;100.00;100305.97;10354855;28;20573;-82
2022/11/04 08:08:33;;;;;;;23.52;7.45;;;;;;;6.61;100.00;100305.66;10350422;28;20033;-82
2022/11/04 08:13:35;;;;;;;13.18;7.60;;;;;;;6.74;100.00;100307.22;10364504;28;20120;-82
2022/11/04 08:19:00;;;;;;;18.98;8.18;;;;;;;6.87;100.00;100313.06;10346182;28;20038;-82
2022/11/04 08:24:08;;;;;;;21.95;8.70;;;;;;;7.27;100.00;100330.81;10351423;28;20042;-80
2022/11/04 08:29:10;;;;;;;16.17;7.45;;;;;;;7.89;100.00;100330.44;10356276;28;20088;-82
2022/11/04 08:34:17;;;;;;;21.80;9.83;;;;;;;8.34;100.00;100341.34;10314388;28;20105;-80
2022/11/04 08:39:19;;;;;;;16.58;7.38;;;;;;;8.68;100.00;100354.25;10339137;28;20125;-81
2022/11/04 08:44:21;;;;;;;14.57;8.25;;;;;;;8.83;100.00;100354.97;10359019;28;20038;-80
2022/11/04 08:49:26;;;;;;;14.67;4.47;;;;;;;8.97;100.00;100350.34;10357748;28;20053;-79
2022/11/04 08:54:30;;;;;;;11.55;5.25;;;;;;;8.96;100.00;100349.47;10356754;28;20049;-80
2022/11/04 08:59:37;;;;;;;8.85;5.78;;;;;;;8.90;100.00;100354.41;10367576;28;20035;-81
2022/11/04 09:04:38;;;;;;;13.20;7.53;;;;;;;8.75;100.00;100358.94;10376791;28;20038;-79
2022/11/04 09:09:40;;;;;;;22.25;6.18;;;;;;;8.85;100.00;100357.63;10357970;28;20038;-79
2022/11/04 09:14:46;;;;;;;10.45;7.43;;;;;;;9.27;100.00;100368.25;10380176;28;20413;-79
2022/11/04 09:19:50;;;;;;;10.65;4.88;;;;;;;9.96;100.00;100365.13;10375751;28;20478;-80
2022/11/04 09:24:51;;;;;;;14.38;4.78;;;;;;;10.40;100.00;100352.13;10369074;28;20573;-79
2022/11/04 09:29:59;;;;;;;9.63;3.75;;;;;;;10.50;97.36;100350.75;10381637;28;20042;-80
2022/11/04 09:35:11;;;;;;;6.43;3.92;;;;;;;10.60;98.06;100357.25;10386843;28;20559;-79
2022/11/04 09:40:26;;;;;;;7.90;3.50;;;;;;;10.73;96.87;100361.22;10372808;28;20572;-78
2022/11/04 09:45:32;;;;;;;7.45;3.13;;;;;;;11.01;95.08;100362.28;10371856;28;20486;-78
2022/11/04 09:50:51;;;;;;;12.48;2.85;;;;;;;11.49;92.06;100355.28;10384027;28;20413;-79
2022/11/04 09:55:54;;;;;;;7.18;3.90;;;;;;;11.84;88.68;100368.75;10371468;28;20092;-78
2022/11/04 10:01:07;;;;;;;12.45;3.67;;;;;;;12.63;85.79;100373.97;10381717;28;20398;-78
2022/11/04 10:06:15;;;;;;;21.95;4.88;;;;;;;14.35;77.33;100368.22;10379552;28;20112;-79
2022/11/04 10:11:44;;;;;;;9.02;3.67;;;;;;;16.81;68.29;100370.28;10363839;28;20122;-79
2022/11/04 10:17:19;;;;;;;17.38;7.60;;;;;;;17.73;60.19;100381.16;10364275;28;20433;-82
2022/11/04 10:22:34;;;;;;;9.48;2.97;;;;;;;14.50;69.39;100390.50;10349787;28;20553;-83
2022/11/04 10:27:49;;;;;;;14.15;3.63;;;;;;;12.69;79.15;100387.31;10363114;28;20088;-81
2022/11/04 10:33:20;;;;;;;9.45;5.88;;;;;;;11.77;84.37;100382.47;10345528;28;20034;-84
2022/11/04 10:38:30;;;;;;;10.63;5.05;;;;;;;11.80;85.62;100380.88;10362325;28;20053;-84
2022/11/04 10:43:35;;;;;;;8.07;3.90;;;;;;;12.14;85.11;100386.38;10359536;28;20050;-83
2022/11/04 10:48:54;;;;;;;10.25;4.20;;;;;;;12.30;84.22;100393.94;10328619;28;20034;-83
2022/11/04 10:53:57;;;;;;;7.18;3.20;;;;;;;12.26;82.69;100409.53;10361398;28;20133;-83
2022/11/04 10:59:03;;;;;;;6.45;3.58;;;;;;;11.91;85.67;100404.81;10363926;28;20145;-83
2022/11/04 11:04:08;;;;;;;12.57;3.92;;;;;;;11.74;89.01;100407.75;10346899;28;20048;-83
2022/11/04 11:09:27;;;;;;;6.40;3.28;;;;;;;11.43;87.57;100421.47;10363024;28;20367;-84
2022/11/04 11:14:30;;;;;;;8.23;3.60;;;;;;;11.19;89.48;100427.59;10331176;28;20049;-82
2022/11/04 11:19:36;;;;;;;10.40;5.50;;;;;;;11.14;92.53;100427.41;10394487;28;20566;-84
2022/11/04 11:24:37;;;;;;;6.38;2.65;;;;;;;11.39;88.82;100433.56;10379291;28;20042;-86
2022/11/04 11:29:52;;;;;;;4.63;2.67;;;;;;;11.89;89.29;100433.63;10363973;28;20092;-83
2022/11/04 11:34:53;;;;;;;7.18;3.25;;;;;;;12.55;85.30;100436.72;10360953;28;20382;-79
2022/11/04 11:39:54;;;;;;;10.00;2.85;;;;;;;15.04;75.99;100438.31;10376600;28;20038;-79
2022/11/04 11:44:55;;;;;;;9.80;2.78;;;;;;;14.66;71.86;100445.31;10361463;28;20546;-80
2022/11/04 11:50:16;;;;;;;9.63;2.60;;;;;;;13.63;76.33;100459.28;10397491;28;20044;-80
2022/11/04 11:55:19;;;;;;;9.35;3.40;;;;;;;12.90;81.01;100460.59;10396694;28;20077;-80
2022/11/04 12:00:27;;;;;;;9.20;3.65;;;;;;;15.66;69.46;100461.63;10376115;28;20046;-80
2022/11/04 12:05:40;;;;;;;6.22;2.97;;;;;;;18.01;60.74;100465.28;10397241;28;20068;-80
2022/11/04 12:10:52;;;;;;;11.18;4.43;;;;;;;16.67;62.50;100463.44;10394367;28;20041;-79
2022/11/04 12:16:15;;;;;;;6.18;3.53;;;;;;;15.10;68.91;100465.69;10398784;28;20053;-80
2022/11/04 12:21:32;;;;;;;7.65;3.63;;;;;;;17.30;61.85;100466.16;10398747;28;20049;-79
2022/11/04 12:26:48;;;;;;;9.63;4.18;;;;;;;16.46;62.07;100474.56;10383729;28;20041;-80
2022/11/04 12:32:18;;;;;;;9.73;3.88;;;;;;;15.33;66.12;100489.06;10357962;28;20053;-79
2022/11/04 12:37:51;;;;;;;11.27;4.50;;;;;;;14.32;71.22;100497.13;10353902;28;20034;-83
2022/11/04 12:43:10;;;;;;;;;;;;;;;13.76;73.17;100490.34;10365220;28;20088;-82
2022/11/04 12:48:30;;;;;;;9.02;4.13;;;;;;;16.28;65.09;100481.28;10360866;28;19918;-81
2022/11/04 12:54:13;;;;;;;11.40;4.95;;;;;;;17.43;59.19;100498.06;10359089;28;20064;-78
2022/11/04 12:59:41;;;;;;;10.05;3.35;;;;;;;16.26;61.56;100506.78;10357295;28;20042;-79
2022/11/04 13:05:03;;;;;;;8.57;3.78;;;;;;;18.06;57.87;100508.59;10356159;28;20042;-79
2022/11/04 13:10:33;;;;;;;10.23;4.15;;;;;;;18.99;51.77;100505.94;10358008;28;20042;-79
2022/11/04 13:15:58;;;;;;;12.93;4.97;;;;;;;20.97;45.96;100511.03;10342477;28;20037;-78
2022/11/04 13:21:03;;;;;;;8.05;3.90;;;;;;;21.15;44.37;100518.13;10376181;28;20108;-79
2022/11/04 13:26:04;;;;;;;6.70;2.95;;;;;;;18.09;51.33;100527.16;10372593;28;20041;-79
2022/11/04 13:31:06;;;;;;;7.28;3.80;;;;;;;15.51;60.66;100533.38;10350124;28;20493;-79
2022/11/04 13:36:47;;;;;;;5.72;2.85;;;;;;;13.39;68.85;100547.06;10397564;28;20088;-78
2022/11/04 13:42:02;;;;;;;6.95;4.40;;;;;;;11.72;80.05;100547.50;10348567;28;20072;-81
2022/11/04 13:47:04;;;;;;;6.28;3.00;;;;;;;10.77;89.35;100559.47;10380089;28;20405;-80
2022/11/04 13:52:23;;;;;;;8.65;3.60;;;;;;;10.03;91.44;100567.59;10363127;28;20037;-86
2022/11/04 13:57:27;;;;;;;5.78;2.50;;;;;;;9.70;95.77;100571.34;10341947;28;20490;-80
2022/11/04 14:02:41;;;;;;;8.45;3.00;;;;;;;9.49;100.00;100570.34;10356036;28;20455;-81
2022/11/04 14:07:58;;;;;;;3.83;2.05;;;;;;;9.37;100.00;100570.66;10377924;28;20490;-83
2022/11/04 14:13:28;;;;;;;3.88;2.65;;;;;;;9.37;100.00;100586.34;10363923;28;20486;-80
2022/11/04 14:18:33;;;;;;;7.13;2.90;;;;;;;9.49;100.00;100604.31;10365328;28;20088;-81
2022/11/04 14:23:34;;;;;;;5.75;3.25;;;;;;;9.58;100.00;100620.41;10362415;28;20026;-80
2022/11/04 14:28:35;;;;;;;8.55;4.55;;;;;;;9.69;100.00;100620.94;10345767;28;20545;-81
2022/11/04 14:33:52;;;;;;;6.85;3.88;;;;;;;9.68;100.00;100619.16;10364846;28;20038;-79
2022/11/04 14:39:10;;;;;;;14.95;6.65;;;;;;;9.62;100.00;100635.41;10361735;28;20125;-78
2022/11/04 14:44:20;;;;;;;14.82;5.90;;;;;;;9.51;100.00;100634.91;10357973;28;20065;-79
2022/11/04 14:49:23;;;;;;;10.88;6.65;;;;;;;9.39;100.00;100657.84;10361195;28;20046;-79
2022/11/04 14:54:25;;;;;;;16.35;8.23;;;;;;;9.36;100.00;100675.97;10364381;28;20056;-79
2022/11/04 14:59:26;;;;;;;13.47;7.70;;;;;;;9.35;100.00;100679.41;10346546;28;20486;-79
2022/11/04 15:04:28;;;;;;;18.95;9.05;;;;;;;9.30;100.00;100673.94;10345816;28;20038;-79
2022/11/04 15:09:31;;;;;;;14.98;9.15;;;;;;;9.26;100.00;100682.44;10362980;28;20091;-78
2022/11/04 15:14:32;;;;;;;19.20;11.88;;;;;;;9.26;100.00;100698.09;10361057;28;20042;-78
2022/11/04 15:19:33;;;;;;;18.85;12.73;;;;;;;9.24;100.00;100708.50;10344667;28;20489;-78
2022/11/04 15:24:34;;;;;;;21.27;12.18;;;;;;;9.22;100.00;100717.97;10344042;28;20034;-78
2022/11/04 15:29:34;;;;;;;25.40;12.68;;;;;;;9.21;100.00;100729.22;10362891;28;20145;-78
2022/11/04 15:34:35;;;;;;;21.48;11.98;;;;;;;9.09;100.00;100729.47;10361520;28;20183;-79
2022/11/04 15:39:42;;;;;;;21.15;10.32;;;;;;;8.99;100.00;100729.81;10359096;28;20485;-79
2022/11/04 15:44:49;;;;;;;19.05;12.90;;;;;;;8.88;100.00;100744.94;10378439;28;20120;-81
2022/11/04 15:49:51;;;;;;;24.50;14.38;;;;;;;8.77;100.00;100748.69;10353397;28;20037;-81
2022/11/04 15:54:53;;;;;;;34.97;12.37;;;;;;;8.71;100.00;100749.25;10372727;28;20045;-80
2022/11/04 16:00:29;;;;;;;27.30;15.02;;;;;;;8.64;100.00;100757.56;10326542;28;20402;-80
2022/11/04 16:05:36;;;;;;;28.85;18.13;;;;;;;8.51;100.00;100769.94;10348529;28;20045;-80
2022/11/04 16:10:38;;;;;;;36.42;16.75;;;;;;;8.41;100.00;100775.44;10344162;28;20038;-80
2022/11/04 16:15:55;;;;;;;41.72;20.02;;;;;;;8.34;100.00;100791.56;10342940;28;20041;-80
2022/11/04 16:20:56;;;;;;;27.10;16.95;;;;;;;8.12;100.00;100795.56;10358467;28;20486;-80
2022/11/04 16:25:59;;;;;;;30.95;19.45;;;;;;;7.85;100.00;100798.41;10360005;28;20072;-80
2022/11/04 16:31:04;;;;;;;31.67;21.30;;;;;;;7.56;100.00;100801.94;10342110;28;20037;-80
2022/11/04 16:36:11;;;;;;;33.88;18.92;;;;;;;7.30;100.00;100807.38;10358630;28;20529;-79
2022/11/04 16:41:11;;;;;;;31.27;19.08;;;;;;;7.24;100.00;100822.63;10341290;28;20121;-80
2022/11/04 16:46:12;;;;;;;38.03;21.58;;;;;;;7.20;100.00;100826.75;10357271;28;20099;-80
2022/11/04 16:51:22;;;;;;;35.33;23.98;;;;;;;7.24;100.00;100846.06;10356638;28;20050;-80
2022/11/04 16:56:23;;;;;;;40.38;24.70;;;;;;;7.26;100.00;100859.19;10340957;28;20038;-80
2022/11/04 17:01:23;;;;;;;44.97;26.35;;;;;;;7.24;100.00;100866.00;10341735;28;20045;-81
2022/11/04 17:06:25;;;;;;;39.22;23.73;;;;;;;7.29;100.00;100867.19;10356041;28;20470;-80
2022/11/04 17:11:25;;;;;;;37.17;22.88;;;;;;;7.28;100.00;100875.78;10372002;28;20490;-80
2022/11/04 17:16:26;;;;;;;36.20;22.23;;;;;;;7.28;100.00;100884.50;10358358;28;20073;-82
2022/11/04 17:21:27;;;;;;;45.28;26.95;;;;;;;7.29;100.00;100882.81;10351455;28;20128;-78
2022/11/04 17:26:27;;;;;;;40.13;26.45;;;;;;;7.39;100.00;100889.44;10357948;28;20049;-77
2022/11/04 17:31:28;;;;;;;36.88;25.00;;;;;;;7.34;100.00;100894.41;10365859;28;20446;-80
2022/11/04 17:36:29;;;;;;;47.55;26.25;;;;;;;7.30;100.00;100895.00;10357823;28;20119;-80
2022/11/04 17:46:48;;;;;;;37.45;24.52;;;;;;;7.19;100.00;100915.16;10357959;28;20038;-80
2022/11/04 17:51:52;;;;;;;45.65;27.08;;;;;;;7.12;100.00;100924.31;10366460;28;20030;-80
2022/11/04 17:56:52;;;;;;;51.10;32.28;;;;;;;7.10;100.00;100933.72;10348945;28;20680;-80
2022/11/04 18:01:53;;;;;;;54.67;31.98;;;;;;;7.08;100.00;100944.81;10348746;28;20130;-80
2022/11/04 18:06:54;;;;;;;52.55;31.88;;;;;;;7.10;100.00;100946.75;10357931;28;20387;-79
2022/11/04 18:17:13;;;;;;;56.78;36.13;;;;;;;7.09;100.00;100942.34;10361559;28;20038;-81
2022/11/04 18:22:14;;;;;;;51.67;30.88;;;;;;;7.10;100.00;100945.81;10363741;28;20120;-81
2022/11/04 18:27:15;;;;;;;62.83;33.70;;;;;;;7.06;100.00;100949.94;10363416;28;20046;-81
2022/11/04 18:32:15;;;;;;;54.28;33.65;;;;;;;7.07;100.00;100961.25;10359538;28;20042;-81
2022/11/04 18:37:16;;;;;;;63.10;37.47;;;;;;;7.08;100.00;100979.56;10358152;28;20044;-80
2022/11/04 18:42:17;;;;;;;65.65;37.50;;;;;;;7.12;100.00;100989.38;10360474;28;20053;-79
2022/11/04 18:47:17;;;;;;;65.97;35.97;;;;;;;7.16;100.00;100986.16;10359400;28;20460;-78
2022/11/04 18:52:18;;;;;;;57.13;31.77;;;;;;;7.15;100.00;100976.56;10359866;28;20121;-79
2022/11/04 18:57:18;;;;;;;52.60;33.10;;;;;;;7.16;100.00;100990.47;10353585;28;20034;-79
2022/11/04 19:02:22;;;;;;;59.03;32.25;;;;;;;7.17;100.00;100989.66;10361716;28;20520;-79
2022/11/04 19:07:22;;;;;;;48.70;30.98;;;;;;;7.14;100.00;100998.19;10361581;28;20034;-80
2022/11/04 19:17:42;;;;;;;45.33;28.20;;;;;;;7.08;100.00;101009.88;10345382;28;20046;-79
2022/11/04 19:22:42;;;;;;;49.38;27.50;;;;;;;7.05;100.00;101018.41;10342686;28;20549;-79
2022/11/04 19:27:43;;;;;;;51.58;27.77;;;;;;;7.02;100.00;101021.72;10350757;28;20087;-76
2022/11/04 19:32:43;;;;;;;43.00;25.45;;;;;;;7.01;100.00;101032.91;10359021;28;20070;-79
2022/11/04 19:37:44;;;;;;;48.83;26.50;;;;;;;6.98;100.00;101035.31;10358143;28;20389;-78
2022/11/04 19:48:04;;;;;;;42.33;23.77;;;;;;;6.95;100.00;101053.34;10361636;28;20062;-78
2022/11/04 19:53:05;;;;;;;36.80;21.45;;;;;;;6.90;100.00;101049.53;10357859;28;20510;-80
2022/11/04 19:58:05;;;;;;;32.70;20.45;;;;;;;6.85;100.00;101063.94;10359392;28;20124;-80
2022/11/04 20:03:06;;;;;;;32.42;19.15;;;;;;;6.75;100.00;101063.34;10357427;28;20042;-79
2022/11/04 20:08:07;;;;;;;31.15;18.08;;;;;;;6.66;100.00;101073.13;10357810;28;20042;-79
2022/11/04 20:18:34;;;;;;;27.10;17.00;;;;;;;6.34;100.00;101092.66;10340714;28;20050;-79
2022/11/04 20:23:34;;;;;;;26.83;17.67;;;;;;;6.11;100.00;101097.19;10338679;28;20421;-79
2022/11/04 20:28:36;;;;;;;26.35;17.42;;;;;;;5.95;100.00;101107.25;10357093;28;20119;-80
2022/11/04 20:33:37;;;;;;;28.75;16.95;;;;;;;5.79;100.00;101121.78;10343146;28;20559;-79
2022/11/04 20:38:37;;;;;;;26.00;16.30;;;;;;;5.73;100.00;101117.06;10356962;28;20038;-79
2022/11/04 20:43:38;;;;;;;25.52;16.95;;;;;;;5.59;100.00;101135.94;10354254;28;20036;-80
2022/11/04 20:48:38;;;;;;;29.00;16.40;;;;;;;5.44;100.00;101133.13;10356145;28;20038;-80
2022/11/04 20:53:39;;;;;;;26.95;17.05;;;;;;;5.32;100.00;101143.53;10357088;28;20030;-80
2022/11/04 20:58:40;;;;;;;22.35;16.27;;;;;;;5.22;100.00;101143.66;10356711;28;20566;-80
2022/11/04 21:03:42;;;;;;;26.33;17.67;;;;;;;5.14;100.00;101169.00;10356759;28;20065;-80
2022/11/04 21:08:42;;;;;;;26.88;17.58;;;;;;;5.09;100.00;101171.28;10359920;28;20092;-80
2022/11/04 21:13:43;;;;;;;24.48;17.08;;;;;;;5.03;100.00;101185.47;10360703;28;20560;-80
2022/11/04 21:18:43;;;;;;;28.35;16.52;;;;;;;4.82;100.00;101186.56;10354682;28;20037;-79
2022/11/04 21:23:45;;;;;;;26.23;16.63;;;;;;;4.82;100.00;101196.03;10368940;28;20038;-80
2022/11/04 21:28:47;;;;;;;28.67;17.88;;;;;;;4.74;100.00;101211.00;10369891;28;20048;-79
2022/11/04 21:33:48;;;;;;;26.35;17.40;;;;;;;4.63;100.00;101215.38;10370107;28;20038;-79
2022/11/04 21:38:48;;;;;;;31.75;19.02;;;;;;;4.52;100.00;101214.53;10369231;28;20196;-79
2022/11/04 21:43:59;;;;;;;31.95;19.20;;;;;;;4.41;100.00;101224.06;10352212;28;20037;-79
2022/11/04 21:49:00;;;;;;;41.50;22.80;;;;;;;4.31;100.00;101226.72;10350751;28;20490;-78
2022/11/04 21:54:03;;;;;;;40.30;21.85;;;;;;;4.24;100.00;101235.72;10368703;28;20042;-79
2022/11/04 21:59:04;;;;;;;26.60;19.08;;;;;;;4.24;100.00;101234.78;10369891;28;20034;-80
2022/11/04 22:04:05;;;;;;;30.52;21.33;;;;;;;4.20;100.00;101244.03;10369629;28;20026;-79
2022/11/04 22:09:05;;;;;;;32.85;21.50;;;;;;;4.12;100.00;101247.69;10371402;28;20402;-79
2022/11/04 22:14:07;;;;;;;31.55;21.83;;;;;;;4.02;100.00;101256.41;10370041;28;20137;-80
2022/11/04 22:19:09;;;;;;;36.33;24.37;;;;;;;3.96;100.00;101248.13;10352541;28;20117;-80
2022/11/04 22:24:15;;;;;;;37.85;24.33;;;;;;;3.91;100.00;101262.41;10351630;28;20092;-79
2022/11/04 22:29:15;;;;;;;37.60;25.88;;;;;;;3.85;100.00;101244.69;10347436;28;20037;-79
2022/11/04 22:34:16;;;;;;;43.50;24.95;;;;;;;3.90;100.00;101255.41;10361230;28;20478;-79
2022/11/04 22:39:17;;;;;;;43.08;28.40;;;;;;;3.94;100.00;101262.66;10362880;28;20639;-79
2022/11/04 22:44:18;;;;;;;33.55;22.70;;;;;;;3.99;100.00;101265.63;10362323;28;20046;-80
2022/11/04 22:49:26;;;;;;;40.00;25.83;;;;;;;4.16;100.00;101270.47;10354755;28;20551;-77
2022/11/04 22:54:30;;;;;;;45.55;27.73;;;;;;;4.28;100.00;101285.19;10331991;28;20397;-78
2022/11/04 22:59:38;;;;;;;40.25;28.58;;;;;;;4.36;100.00;101274.63;10365478;28;20034;-77
2022/11/04 23:04:39;;;;;;;41.28;26.42;;;;;;;4.43;100.00;101283.81;10343122;28;20188;-78
2022/11/04 23:20:20;;;;;;;41.22;28.30;;;;;;;4.66;100.00;101293.38;10324728;28;20517;-77
2022/11/04 23:25:21;;;;;;;52.67;32.63;;;;;;;4.65;100.00;101288.97;10345374;28;20570;-76
2022/11/04 23:30:24;;;;;;;55.83;37.53;;;;;;;4.57;100.00;101299.56;10334451;28;20049;-77
